Time;durP1;ratioP1;P1;durP2;ratioP2;P2;SDS_P1;SDS_P2;PMS_P1;PMS_P2;Temp;Humidity;BMP_temperature;BMP_pressure;BME280_temperature;BME280_humidity;BME280_pressure;Samples;Min_cycle;Max_cycle;Signal;HPM_P1;HPM_P2
2022/03/19 00:00:01;;;;;;;0.57;0.57;;;9.70;99.90;;;;;;5014230;28;20033;-73
2022/03/19 00:02:27;;;;;;;0.35;0.35;;;9.60;99.90;;;;;;5010676;28;20053;-74
2022/03/19 00:04:53;;;;;;;1.20;0.35;;;9.60;99.90;;;;;;5012251;28;20050;-74
2022/03/19 00:07:19;;;;;;;0.40;0.40;;;9.60;99.90;;;;;;5013839;28;20116;-73
2022/03/19 00:09:45;;;;;;;3.92;1.38;;;9.70;99.90;;;;;;5015211;28;20041;-74
2022/03/19 00:12:14;;;;;;;0.68;0.68;;;9.60;99.90;;;;;;5018356;28;20033;-73
2022/03/19 00:14:41;;;;;;;1.17;0.75;;;9.60;99.90;;;;;;5012525;28;20034;-74
2022/03/19 00:17:08;;;;;;;0.30;0.30;;;9.60;99.90;;;;;;5015877;28;20042;-74
2022/03/19 00:19:34;;;;;;;0.47;0.47;;;9.60;99.90;;;;;;5017839;28;20064;-74
2022/03/19 00:22:00;;;;;;;0.57;0.52;;;9.50;99.90;;;;;;5018157;28;20120;-74
2022/03/19 00:24:25;;;;;;;0.40;0.40;;;9.60;99.90;;;;;;5016582;28;20060;-74
2022/03/19 00:26:51;;;;;;;0.20;0.20;;;9.50;99.90;;;;;;5000070;28;20121;-74
2022/03/19 00:29:17;;;;;;;1.00;0.32;;;9.50;99.90;;;;;;5017656;28;20042;-74
2022/03/19 00:31:43;;;;;;;0.57;0.57;;;9.60;99.90;;;;;;5003127;28;20608;-74
2022/03/19 00:34:08;;;;;;;0.15;0.15;;;9.60;99.90;;;;;;5011749;28;20048;-74
2022/03/19 00:36:34;;;;;;;0.10;0.10;;;9.60;99.90;;;;;;5016051;28;20065;-74
2022/03/19 00:39:01;;;;;;;0.30;0.30;;;9.60;99.90;;;;;;5017961;28;20501;-74
2022/03/19 00:41:26;;;;;;;0.30;0.30;;;9.60;99.90;;;;;;5017580;28;20576;-74
2022/03/19 00:43:52;;;;;;;0.85;0.65;;;9.60;99.90;;;;;;5015076;28;20065;-73
2022/03/19 00:46:19;;;;;;;0.10;0.10;;;9.50;99.90;;;;;;5016461;28;20132;-74
2022/03/19 00:48:46;;;;;;;0.40;0.40;;;9.60;99.90;;;;;;5016175;28;20568;-74
2022/03/19 00:51:11;;;;;;;0.10;0.10;;;9.40;99.90;;;;;;5017783;28;20042;-74
2022/03/19 00:53:37;;;;;;;0.43;0.43;;;9.50;99.90;;;;;;5016605;28;20042;-73
2022/03/19 00:56:03;;;;;;;0.30;0.30;;;9.40;99.90;;;;;;5016813;28;20457;-74
2022/03/19 00:58:29;;;;;;;0.10;0.10;;;9.50;99.90;;;;;;5014220;28;20129;-74
2022/03/19 01:00:55;;;;;;;0.43;0.43;;;9.60;99.90;;;;;;5010012;28;20133;-74
2022/03/19 01:03:21;;;;;;;0.35;0.35;;;9.60;99.90;;;;;;4996943;28;20046;-74
2022/03/19 01:05:47;;;;;;;0.80;0.75;;;9.60;99.90;;;;;;4996860;28;20597;-74
2022/03/19 01:08:13;;;;;;;0.30;0.30;;;9.60;99.90;;;;;;4997063;28;20125;-74
2022/03/19 01:10:39;;;;;;;1.73;1.08;;;9.70;99.90;;;;;;5013480;28;20061;-74
2022/03/19 01:13:06;;;;;;;0.80;0.80;;;9.60;99.90;;;;;;5015673;28;20041;-74
2022/03/19 01:15:32;;;;;;;0.28;0.28;;;9.60;99.90;;;;;;5015551;28;20453;-74
2022/03/19 01:18:00;;;;;;;0.30;0.30;;;9.60;99.90;;;;;;5016784;28;20045;-74
2022/03/19 01:20:26;;;;;;;0.30;0.30;;;9.60;99.90;;;;;;5015221;28;20034;-73
2022/03/19 01:22:52;;;;;;;0.57;0.57;;;9.70;99.90;;;;;;5014422;28;20064;-73
2022/03/19 01:25:19;;;;;;;0.90;0.45;;;9.70;99.90;;;;;;5015233;28;20092;-74
2022/03/19 01:27:47;;;;;;;1.42;1.33;;;9.60;99.90;;;;;;5015245;28;20180;-74
2022/03/19 01:30:17;;;;;;;0.57;0.57;;;9.50;99.90;;;;;;5014372;28;20095;-74
2022/03/19 01:32:44;;;;;;;0.45;0.45;;;9.70;99.90;;;;;;5015190;28;20049;-74
2022/03/19 01:35:11;;;;;;;0.30;0.30;;;9.80;99.90;;;;;;5016278;28;20041;-74
2022/03/19 01:37:38;;;;;;;0.35;0.35;;;9.80;99.90;;;;;;5011063;28;20401;-73
2022/03/19 01:40:06;;;;;;;0.10;0.10;;;9.70;99.90;;;;;;5016092;28;20142;-74
2022/03/19 01:42:34;;;;;;;0.10;0.10;;;9.70;99.90;;;;;;5014725;28;20534;-74
2022/03/19 01:45:00;;;;;;;0.30;0.30;;;9.70;99.90;;;;;;5015320;28;20053;-73
2022/03/19 01:47:28;;;;;;;0.20;0.20;;;9.80;99.90;;;;;;5014614;28;20564;-74
2022/03/19 01:49:55;;;;;;;0.45;0.43;;;9.70;99.90;;;;;;5015756;28;20038;-74
2022/03/19 01:52:21;;;;;;;0.45;0.45;;;9.60;99.90;;;;;;5014828;28;20037;-74
2022/03/19 01:54:49;;;;;;;1.38;1.38;;;9.60;99.90;;;;;;5013335;28;20040;-74
2022/03/19 01:57:21;;;;;;;0.45;0.45;;;9.60;99.90;;;;;;5014528;28;20054;-74
2022/03/19 01:59:47;;;;;;;0.45;0.45;;;9.50;99.90;;;;;;5015724;28;20069;-74
2022/03/19 02:02:14;;;;;;;0.20;0.20;;;9.60;99.90;;;;;;5014225;28;20128;-74
2022/03/19 02:04:41;;;;;;;0.93;0.45;;;9.60;99.90;;;;;;5015908;28;20567;-74
2022/03/19 02:07:09;;;;;;;0.20;0.20;;;9.60;99.90;;;;;;5015087;28;20042;-74
2022/03/19 02:09:38;;;;;;;0.50;0.50;;;9.60;99.90;;;;;;5004053;28;20046;-74
2022/03/19 02:12:06;;;;;;;0.35;0.35;;;9.60;99.90;;;;;;4996248;28;20064;-73
2022/03/19 02:14:38;;;;;;;0.70;0.45;;;9.60;99.90;;;;;;5013416;28;20044;-73
2022/03/19 02:17:06;;;;;;;0.25;0.25;;;9.60;99.90;;;;;;5015056;28;20140;-74
2022/03/19 02:19:32;;;;;;;0.30;0.13;;;9.60;99.90;;;;;;5015392;28;20120;-73
2022/03/19 02:21:58;;;;;;;0.57;0.57;;;9.60;99.90;;;;;;5015924;28;20120;-73
2022/03/19 02:27:08;;;;;;;0.70;0.57;;;9.50;99.90;;;;;;5013941;28;20180;-74
2022/03/19 02:29:34;;;;;;;0.22;0.22;;;9.40;99.90;;;;;;5014372;28;20116;-74
2022/03/19 02:32:04;;;;;;;0.32;0.32;;;9.40;99.90;;;;;;5014758;28;20038;-74
2022/03/19 02:34:31;;;;;;;0.88;0.57;;;9.40;99.90;;;;;;5014823;28;20128;-74
2022/03/19 02:36:57;;;;;;;0.35;0.35;;;9.30;99.90;;;;;;5014089;28;20033;-74
2022/03/19 02:39:30;;;;;;;1.40;0.45;;;9.30;99.90;;;;;;5015009;28;20389;-73
2022/03/19 02:41:59;;;;;;;0.68;0.68;;;9.10;99.90;;;;;;5014213;28;20038;-73
2022/03/19 02:44:26;;;;;;;0.50;0.50;;;8.90;99.90;;;;;;5015009;28;20077;-74
2022/03/19 02:46:53;;;;;;;0.90;0.90;;;8.90;99.90;;;;;;5013864;28;20100;-74
2022/03/19 02:49:19;;;;;;;0.55;0.55;;;8.90;99.90;;;;;;5014931;28;20072;-74
2022/03/19 02:51:48;;;;;;;0.30;0.30;;;8.90;99.90;;;;;;5014959;28;20053;-73
2022/03/19 02:54:18;;;;;;;2.17;1.98;;;8.80;99.90;;;;;;5014644;28;20038;-73
2022/03/19 02:56:44;;;;;;;0.35;0.35;;;8.80;99.90;;;;;;5013569;28;20603;-74
2022/03/19 02:59:19;;;;;;;0.20;0.20;;;8.70;99.90;;;;;;5013331;28;20053;-74
2022/03/19 03:01:45;;;;;;;0.98;0.73;;;8.70;99.90;;;;;;5013533;28;20085;-74
2022/03/19 03:04:11;;;;;;;0.52;0.52;;;8.80;99.90;;;;;;5014685;28;20449;-74
2022/03/19 03:06:40;;;;;;;0.60;0.60;;;8.70;99.90;;;;;;5010158;28;20041;-74
2022/03/19 03:09:06;;;;;;;3.70;0.82;;;8.60;99.90;;;;;;5014696;28;20066;-73
2022/03/19 03:11:32;;;;;;;0.50;0.50;;;8.50;99.90;;;;;;5014300;28;20042;-74
2022/03/19 03:13:59;;;;;;;1.10;0.77;;;8.50;99.90;;;;;;5007258;28;20084;-74
2022/03/19 03:16:26;;;;;;;1.10;1.10;;;8.50;99.90;;;;;;4999695;28;20090;-74
2022/03/19 03:18:54;;;;;;;0.85;0.85;;;8.40;99.90;;;;;;5013250;28;20571;-73
2022/03/19 03:21:20;;;;;;;0.38;0.38;;;8.40;99.90;;;;;;5011409;28;20049;-74
2022/03/19 03:23:46;;;;;;;0.57;0.57;;;8.40;99.90;;;;;;4994882;28;20046;-73
2022/03/19 03:26:12;;;;;;;0.70;0.70;;;8.50;99.90;;;;;;4998459;28;20045;-74
2022/03/19 03:28:37;;;;;;;0.30;0.30;;;8.50;99.90;;;;;;4996231;28;20068;-74
2022/03/19 03:31:03;;;;;;;0.40;0.40;;;8.40;99.90;;;;;;5012212;28;20045;-74
2022/03/19 03:33:29;;;;;;;3.28;0.55;;;8.60;99.90;;;;;;5014462;28;20125;-74
2022/03/19 03:35:55;;;;;;;0.32;0.32;;;8.50;99.90;;;;;;5014209;28;20060;-74
2022/03/19 03:38:21;;;;;;;1.48;1.38;;;8.40;99.90;;;;;;5013061;28;20088;-73
2022/03/19 03:40:47;;;;;;;1.75;1.02;;;8.30;99.90;;;;;;5013426;28;20045;-74
2022/03/19 03:43:12;;;;;;;1.33;0.98;;;8.30;99.90;;;;;;5013120;28;20038;-74
2022/03/19 03:45:38;;;;;;;0.35;0.35;;;8.30;99.90;;;;;;5014907;28;20101;-74
2022/03/19 03:48:04;;;;;;;0.90;0.82;;;8.30;99.90;;;;;;5001340;28;20113;-74
2022/03/19 03:50:31;;;;;;;0.98;0.57;;;8.20;99.90;;;;;;5001386;28;20045;-74
2022/03/19 03:52:57;;;;;;;0.52;0.52;;;8.20;99.90;;;;;;5017734;28;20038;-74
2022/03/19 03:55:23;;;;;;;0.70;0.57;;;8.20;99.90;;;;;;5017954;28;20045;-74
2022/03/19 03:57:49;;;;;;;0.40;0.40;;;8.10;99.90;;;;;;5017785;28;20037;-74
2022/03/19 04:00:15;;;;;;;0.70;0.70;;;8.10;99.90;;;;;;5016973;28;20045;-74
2022/03/19 04:02:41;;;;;;;0.60;0.60;;;7.90;99.90;;;;;;5014825;28;20057;-74
2022/03/19 04:05:08;;;;;;;0.77;0.77;;;7.80;99.90;;;;;;5018068;28;20054;-74
2022/03/19 04:07:34;;;;;;;0.85;0.85;;;7.90;99.90;;;;;;5017547;28;20408;-74
2022/03/19 04:10:00;;;;;;;0.93;0.93;;;7.80;99.90;;;;;;5017463;28;20042;-74
2022/03/19 04:12:26;;;;;;;0.50;0.50;;;7.90;99.90;;;;;;5015469;28;20044;-74
2022/03/19 04:14:52;;;;;;;2.13;1.48;;;8.00;99.90;;;;;;5016613;28;20042;-74
2022/03/19 04:17:18;;;;;;;0.68;0.68;;;8.10;99.90;;;;;;5017500;28;20500;-74
2022/03/19 04:19:45;;;;;;;0.35;0.35;;;8.00;99.90;;;;;;5017587;28;20511;-74
2022/03/19 04:22:11;;;;;;;0.28;0.28;;;8.00;99.90;;;;;;5016756;28;20042;-74
2022/03/19 04:24:38;;;;;;;4.80;2.13;;;8.00;99.90;;;;;;5017216;28;20038;-74
2022/03/19 04:27:04;;;;;;;1.20;0.57;;;8.10;99.90;;;;;;5016399;28;20107;-74
2022/03/19 04:29:30;;;;;;;0.20;0.20;;;8.10;99.90;;;;;;5016608;28;20069;-74
2022/03/19 04:31:57;;;;;;;0.45;0.45;;;8.10;99.90;;;;;;5016254;28;20116;-75
2022/03/19 04:34:23;;;;;;;0.15;0.15;;;8.10;99.90;;;;;;5016538;28;20041;-74
2022/03/19 04:36:49;;;;;;;1.00;0.73;;;8.10;99.90;;;;;;5017165;28;20048;-73
2022/03/19 04:39:15;;;;;;;1.33;1.20;;;8.10;99.90;;;;;;5016133;28;20049;-74
2022/03/19 04:41:41;;;;;;;0.55;0.55;;;8.00;99.90;;;;;;5016058;28;20045;-74
2022/03/19 04:44:08;;;;;;;0.52;0.52;;;7.90;99.90;;;;;;5015657;28;20084;-74
2022/03/19 04:46:35;;;;;;;0.60;0.60;;;8.00;99.90;;;;;;5013576;28;20038;-74
2022/03/19 04:49:02;;;;;;;0.47;0.47;;;7.80;99.90;;;;;;5017368;28;20041;-74
2022/03/19 04:51:32;;;;;;;0.28;0.28;;;7.80;99.90;;;;;;5016524;28;20061;-74
2022/03/19 04:53:58;;;;;;;0.80;0.80;;;7.80;99.90;;;;;;5016559;28;20069;-74
2022/03/19 04:56:26;;;;;;;1.65;0.50;;;7.80;99.90;;;;;;5014393;28;20073;-74
2022/03/19 04:58:54;;;;;;;0.40;0.40;;;7.70;99.90;;;;;;5016741;28;20081;-74
2022/03/19 05:01:24;;;;;;;0.43;0.43;;;7.70;99.90;;;;;;5016165;28;20096;-74
2022/03/19 05:03:49;;;;;;;0.25;0.25;;;7.80;99.90;;;;;;5016100;28;20068;-74
2022/03/19 05:06:15;;;;;;;0.88;0.57;;;7.80;99.90;;;;;;5017044;28;20428;-74
2022/03/19 05:08:41;;;;;;;0.75;0.43;;;7.70;99.90;;;;;;5014685;28;20038;-74
2022/03/19 05:11:13;;;;;;;0.70;0.57;;;7.60;99.90;;;;;;5011115;28;20509;-74
2022/03/19 05:13:41;;;;;;;0.70;0.70;;;7.70;99.90;;;;;;4997338;28;20502;-73
2022/03/19 05:16:07;;;;;;;0.68;0.68;;;7.50;99.90;;;;;;5014349;28;20042;-74
2022/03/19 05:18:33;;;;;;;0.38;0.38;;;7.40;99.90;;;;;;5016236;28;20049;-74
2022/03/19 05:20:59;;;;;;;5.35;0.82;;;7.40;99.90;;;;;;5016687;28;20566;-74
2022/03/19 05:23:25;;;;;;;0.43;0.40;;;7.20;99.90;;;;;;5016323;28;20029;-74
2022/03/19 05:25:52;;;;;;;0.95;0.95;;;7.20;99.90;;;;;;5005775;28;20096;-74
2022/03/19 05:28:19;;;;;;;1.60;0.90;;;7.20;99.90;;;;;;5011826;28;20041;-74
2022/03/19 05:30:46;;;;;;;0.80;0.75;;;7.10;99.90;;;;;;5011527;28;20726;-74
2022/03/19 05:33:14;;;;;;;0.47;0.40;;;7.10;99.90;;;;;;5014246;28;20048;-74
2022/03/19 05:35:40;;;;;;;0.15;0.15;;;7.10;99.90;;;;;;5013926;28;20066;-74
2022/03/19 05:38:06;;;;;;;0.47;0.43;;;7.10;99.90;;;;;;5004302;28;20049;-74
2022/03/19 05:40:32;;;;;;;0.68;0.68;;;7.10;99.90;;;;;;5013814;28;20125;-74
2022/03/19 05:42:58;;;;;;;0.20;0.20;;;7.00;99.90;;;;;;5013781;28;20441;-74
2022/03/19 05:45:24;;;;;;;0.30;0.30;;;7.00;99.90;;;;;;5013646;28;20049;-74
2022/03/19 05:47:50;;;;;;;0.63;0.45;;;6.90;99.90;;;;;;4997290;28;20176;-74
2022/03/19 05:50:16;;;;;;;0.20;0.20;;;6.80;99.90;;;;;;5015498;28;20080;-73
2022/03/19 05:52:45;;;;;;;0.65;0.63;;;7.00;99.90;;;;;;5015674;28;20564;-73
2022/03/19 05:55:11;;;;;;;0.15;0.15;;;7.00;99.90;;;;;;5015244;28;20049;-73
2022/03/19 05:57:37;;;;;;;0.77;0.45;;;7.00;99.90;;;;;;5015792;28;20065;-74
2022/03/19 06:00:05;;;;;;;0.43;0.43;;;7.10;99.90;;;;;;5013375;28;20053;-74
2022/03/19 06:02:31;;;;;;;13.18;1.25;;;7.10;99.90;;;;;;5015173;28;20058;-74
2022/03/19 06:04:57;;;;;;;1.08;0.63;;;7.20;99.90;;;;;;5015272;28;20496;-73
2022/03/19 06:07:22;;;;;;;0.30;0.30;;;7.20;99.90;;;;;;5015083;28;20091;-74
2022/03/19 06:09:48;;;;;;;0.43;0.43;;;7.20;99.90;;;;;;5014413;28;20038;-73
2022/03/19 06:12:14;;;;;;;0.20;0.20;;;7.20;99.90;;;;;;5014706;28;20061;-74
2022/03/19 06:14:40;;;;;;;0.10;0.10;;;7.20;99.90;;;;;;5016036;28;20061;-74
2022/03/19 06:17:06;;;;;;;0.15;0.15;;;7.30;99.90;;;;;;5012940;28;20050;-74
2022/03/19 06:19:32;;;;;;;0.50;0.50;;;7.20;99.90;;;;;;5010761;28;20100;-74
2022/03/19 06:21:57;;;;;;;2.05;0.80;;;7.20;99.90;;;;;;5015612;28;20607;-74
2022/03/19 06:24:23;;;;;;;0.47;0.47;;;7.10;99.90;;;;;;5015161;28;20037;-74
2022/03/19 06:26:51;;;;;;;0.52;0.30;;;7.20;99.90;;;;;;5015027;28;20119;-74
2022/03/19 06:29:17;;;;;;;1.35;0.57;;;7.20;99.90;;;;;;5015548;28;20038;-73
2022/03/19 06:31:43;;;;;;;0.10;0.10;;;7.30;99.90;;;;;;5014363;28;20073;-74
2022/03/19 06:34:09;;;;;;;0.73;0.73;;;7.20;99.90;;;;;;5010210;28;20123;-74
2022/03/19 06:39:19;;;;;;;0.50;0.50;;;7.20;99.90;;;;;;5014643;28;20424;-74
2022/03/19 06:41:45;;;;;;;0.25;0.25;;;7.30;99.90;;;;;;5015432;28;20045;-73
2022/03/19 06:44:11;;;;;;;0.13;0.13;;;7.30;99.90;;;;;;5013907;28;20041;-74
2022/03/19 06:46:36;;;;;;;0.20;0.20;;;7.40;99.90;;;;;;5015170;28;20056;-73
2022/03/19 06:49:03;;;;;;;0.20;0.20;;;7.30;99.90;;;;;;5015296;28;20038;-74
2022/03/19 06:51:28;;;;;;;1.33;0.77;;;7.40;99.90;;;;;;5015093;28;20113;-74
2022/03/19 06:53:54;;;;;;;0.32;0.32;;;7.50;99.90;;;;;;5007327;28;20438;-74
2022/03/19 06:56:20;;;;;;;0.40;0.40;;;7.40;99.90;;;;;;5000582;28;20049;-74
2022/03/19 06:58:46;;;;;;;0.55;0.40;;;7.50;99.90;;;;;;5015116;28;20492;-73
2022/03/19 07:01:15;;;;;;;0.60;0.57;;;7.60;99.90;;;;;;5014684;28;20042;-74
2022/03/19 07:03:43;;;;;;;0.20;0.20;;;7.70;99.90;;;;;;5012292;28;20041;-74
2022/03/19 07:06:09;;;;;;;0.45;0.45;;;7.60;99.90;;;;;;5000075;28;20091;-74
2022/03/19 07:08:35;;;;;;;0.50;0.50;;;7.50;99.90;;;;;;4997782;28;20509;-74
2022/03/19 07:11:00;;;;;;;0.10;0.10;;;7.70;99.90;;;;;;4998215;28;20042;-74
2022/03/19 07:13:26;;;;;;;0.60;0.60;;;7.70;99.90;;;;;;5014140;28;20113;-74
2022/03/19 07:15:52;;;;;;;0.40;0.40;;;7.90;99.90;;;;;;5014661;28;20389;-73
2022/03/19 07:18:18;;;;;;;0.40;0.40;;;8.10;99.90;;;;;;5013700;28;20073;-74
2022/03/19 07:20:43;;;;;;;0.47;0.47;;;8.00;99.50;;;;;;5016554;28;20047;-74
2022/03/19 07:23:09;;;;;;;0.15;0.15;;;8.10;99.90;;;;;;5017226;28;20045;-74
2022/03/19 07:25:39;;;;;;;3.92;2.08;;;8.10;92.00;;;;;;5014836;28;20132;-74
2022/03/19 07:28:09;;;;;;;0.17;0.17;;;8.30;99.30;;;;;;5000718;28;20038;-74
2022/03/19 07:30:35;;;;;;;1.05;1.02;;;8.30;81.10;;;;;;5002480;28;20085;-74
2022/03/19 07:33:01;;;;;;;0.20;0.20;;;8.10;85.90;;;;;;5018440;28;20030;-74
2022/03/19 07:35:28;;;;;;;0.68;0.68;;;8.30;92.30;;;;;;5018348;28;20050;-74
2022/03/19 07:37:54;;;;;;;0.43;0.43;;;8.40;79.90;;;;;;5015892;28;20053;-74
2022/03/19 07:43:10;;;;;;;0.10;0.10;;;8.40;81.60;;;;;;5014555;28;20041;-74
2022/03/19 07:45:37;;;;;;;0.93;0.88;;;8.50;70.40;;;;;;5017826;28;20052;-74
2022/03/19 07:48:04;;;;;;;0.10;0.10;;;8.40;65.70;;;;;;5017639;28;20523;-74
2022/03/19 07:50:30;;;;;;;0.17;0.17;;;8.50;41.00;;;;;;5017362;28;20061;-74
2022/03/19 07:52:56;;;;;;;0.52;0.52;;;8.50;60.80;;;;;;5016273;28;20513;-74
2022/03/19 07:55:24;;;;;;;0.63;0.63;;;8.80;59.40;;;;;;5016443;28;20049;-74
2022/03/19 07:57:50;;;;;;;0.47;0.47;;;8.90;61.60;;;;;;5014552;28;20421;-74
2022/03/19 08:00:16;;;;;;;0.90;0.85;;;9.00;44.60;;;;;;5016488;28;20047;-75
2022/03/19 08:02:43;;;;;;;0.82;0.82;;;9.10;34.30;;;;;;5012853;28;20040;-73
2022/03/19 08:05:10;;;;;;;0.20;0.20;;;9.10;35.70;;;;;;5009751;28;20118;-74
2022/03/19 08:07:37;;;;;;;0.38;0.38;;;9.00;51.50;;;;;;5006736;28;20053;-74
2022/03/19 08:10:13;;;;;;;0.40;0.40;;;9.10;43.10;;;;;;5017352;28;20042;-74
2022/03/19 08:12:41;;;;;;;0.52;0.52;;;9.40;34.80;;;;;;5011010;28;20040;-74
2022/03/19 08:15:09;;;;;;;1.02;0.43;;;9.30;42.20;;;;;;5012359;28;20042;-74
2022/03/19 08:17:36;;;;;;;0.10;0.10;;;9.60;33.60;;;;;;5006710;28;20101;-74
2022/03/19 08:20:06;;;;;;;0.40;0.40;;;9.60;21.60;;;;;;5012035;28;20037;-74
2022/03/19 08:22:33;;;;;;;0.10;0.10;;;9.80;26.80;;;;;;5011343;28;20042;-74
2022/03/19 08:24:59;;;;;;;1.30;0.77;;;9.70;34.30;;;;;;5012379;28;20455;-73
2022/03/19 08:27:26;;;;;;;0.75;0.75;;;9.70;27.30;;;;;;5012261;28;20041;-74
2022/03/19 08:29:52;;;;;;;1.35;0.88;;;9.90;25.90;;;;;;5010850;28;20045;-74
2022/03/19 08:32:20;;;;;;;0.40;0.40;;;9.80;15.20;;;;;;5014153;28;20435;-74
2022/03/19 08:34:46;;;;;;;0.88;0.68;;;10.20;20.40;;;;;;5010824;28;20121;-74
2022/03/19 08:37:13;;;;;;;0.50;0.50;;;10.30;18.50;;;;;;5006620;28;20053;-75
2022/03/19 08:42:24;;;;;;;0.55;0.40;;;10.70;19.70;;;;;;5011952;28;20136;-74
2022/03/19 08:44:51;;;;;;;0.90;0.88;;;10.60;9.70;;;;;;5003961;28;20133;-74
2022/03/19 08:47:17;;;;;;;0.47;0.47;;;10.80;20.80;;;;;;5007580;28;20081;-74
2022/03/19 08:49:43;;;;;;;0.20;0.20;;;10.70;17.20;;;;;;5007107;28;20444;-74
2022/03/19 08:52:09;;;;;;;0.30;0.30;;;10.90;21.00;;;;;;5004609;28;20030;-74
2022/03/19 08:54:34;;;;;;;0.98;0.88;;;11.20;21.00;;;;;;5007920;28;20072;-74
2022/03/19 08:57:00;;;;;;;0.35;0.35;;;10.90;16.20;;;;;;5008612;28;20042;-74
2022/03/19 08:59:26;;;;;;;1.10;0.32;;;11.10;5.00;;;;;;5013011;28;20113;-73
2022/03/19 09:01:53;;;;;;;0.70;0.70;;;11.60;6.90;;;;;;5004438;28;20065;-74
2022/03/19 09:04:19;;;;;;;0.68;0.68;;;11.70;1.00;;;;;;5013712;28;20493;-74
2022/03/19 09:06:46;;;;;;;0.73;0.73;;;11.80;1.00;;;;;;5014904;28;20042;-73
2022/03/19 09:09:14;;;;;;;0.85;0.85;;;11.70;1.00;;;;;;5013776;28;20044;-74
2022/03/19 09:11:40;;;;;;;0.30;0.30;;;11.90;1.00;;;;;;5010590;28;20040;-74
2022/03/19 09:14:08;;;;;;;0.85;0.85;;;12.20;1.00;;;;;;5013973;28;20500;-74
2022/03/19 09:16:35;;;;;;;0.43;0.43;;;12.20;1.00;;;;;;5007920;28;20112;-74
2022/03/19 09:19:03;;;;;;;1.55;0.93;;;12.40;1.00;;;;;;5000925;28;20069;-74
2022/03/19 09:21:29;;;;;;;0.80;0.77;;;12.30;1.00;;;;;;5006946;28;20046;-74
2022/03/19 09:23:57;;;;;;;2.05;1.38;;;12.40;1.00;;;;;;5008901;28;20045;-74
2022/03/19 09:26:24;;;;;;;0.63;0.63;;;12.70;1.00;;;;;;5007728;28;20455;-74
2022/03/19 09:28:51;;;;;;;0.65;0.65;;;12.70;1.00;;;;;;5004549;28;20123;-74
2022/03/19 09:31:17;;;;;;;3.05;0.80;;;12.30;1.00;;;;;;5009132;28;20025;-76
2022/03/19 09:33:48;;;;;;;0.30;0.30;;;12.40;1.00;;;;;;5006646;28;20038;-74
2022/03/19 09:36:15;;;;;;;0.50;0.50;;;12.50;1.00;;;;;;4999970;28;20042;-73
2022/03/19 09:38:41;;;;;;;0.95;0.95;;;12.50;1.00;;;;;;5012793;28;20042;-74
2022/03/19 09:41:10;;;;;;;1.10;1.02;;;12.60;1.00;;;;;;5010769;28;20033;-75
2022/03/19 09:43:41;;;;;;;0.55;0.55;;;12.70;1.00;;;;;;5006119;28;20031;-75
2022/03/19 09:46:07;;;;;;;0.52;0.52;;;12.70;1.00;;;;;;5004682;28;20135;-74
2022/03/19 09:48:34;;;;;;;0.65;0.60;;;12.50;1.00;;;;;;5014913;28;20038;-74
2022/03/19 09:51:00;;;;;;;0.20;0.20;;;12.70;1.00;;;;;;5011438;28;20156;-75
2022/03/19 09:53:29;;;;;;;0.40;0.40;;;13.00;1.00;;;;;;5011121;28;20076;-73
2022/03/19 09:55:58;;;;;;;0.93;0.90;;;13.10;1.00;;;;;;5001642;28;20089;-74
2022/03/19 09:58:26;;;;;;;1.40;1.30;;;13.40;1.00;;;;;;5004805;28;20170;-74
2022/03/19 10:00:52;;;;;;;0.30;0.30;;;13.60;1.00;;;;;;5001666;28;20058;-74
2022/03/19 10:03:23;;;;;;;0.43;0.43;;;13.60;1.00;;;;;;5009261;28;20520;-74
2022/03/19 10:08:56;;;;;;;0.40;0.40;;;13.70;1.00;;;;;;4993215;28;20406;-74
2022/03/19 10:11:21;;;;;;;4.05;1.60;;;13.90;1.00;;;;;;4999213;28;20034;-74
2022/03/19 10:13:49;;;;;;;0.63;0.63;;;13.90;1.00;;;;;;4997302;28;20125;-73
2022/03/19 10:16:21;;;;;;;0.70;0.70;;;14.00;1.00;;;;;;4994703;28;20053;-74
2022/03/19 10:18:57;;;;;;;1.58;1.38;;;14.30;1.00;;;;;;5004946;28;20040;-73
2022/03/19 10:21:23;;;;;;;0.70;0.70;;;14.30;1.00;;;;;;5005541;28;20034;-73
2022/03/19 10:23:50;;;;;;;2.03;1.02;;;13.90;1.00;;;;;;5011135;28;20049;-74
2022/03/19 10:26:26;;;;;;;0.57;0.57;;;13.60;1.00;;;;;;5011277;28;20040;-73
2022/03/19 10:28:56;;;;;;;0.38;0.38;;;14.00;1.00;;;;;;5003689;28;20065;-74
2022/03/19 10:31:50;;;;;;;0.90;0.90;;;14.10;1.00;;;;;;5004628;28;20648;-73
2022/03/19 10:34:16;;;;;;;1.13;1.02;;;14.20;1.00;;;;;;5006876;28;20041;-74
2022/03/19 10:36:46;;;;;;;1.83;1.52;;;14.10;1.00;;;;;;5010238;28;20125;-73
2022/03/19 10:39:25;;;;;;;1.40;1.30;;;14.20;1.00;;;;;;5010863;28;20037;-73
2022/03/19 10:41:51;;;;;;;3.47;1.27;;;13.90;1.00;;;;;;5007230;28;20061;-72
2022/03/19 10:44:24;;;;;;;0.75;0.75;;;13.70;1.00;;;;;;4999529;28;20119;-75
2022/03/19 10:46:58;;;;;;;0.45;0.45;;;13.80;1.00;;;;;;5005597;28;20052;-73
2022/03/19 10:49:28;;;;;;;0.85;0.85;;;13.70;1.00;;;;;;5000368;28;20034;-74
2022/03/19 10:51:56;;;;;;;0.68;0.68;;;13.50;1.00;;;;;;5002607;28;20069;-72
2022/03/19 10:54:23;;;;;;;0.85;0.85;;;13.60;1.00;;;;;;5003485;28;20076;-72
2022/03/19 10:56:51;;;;;;;2.05;0.90;;;13.60;1.00;;;;;;5002645;28;20064;-71
2022/03/19 10:59:19;;;;;;;0.55;0.55;;;13.80;1.00;;;;;;5013126;28;20042;-74
2022/03/19 11:01:50;;;;;;;0.63;0.63;;;13.70;1.00;;;;;;5007223;28;20046;-73
2022/03/19 11:04:16;;;;;;;1.02;1.02;;;13.80;1.00;;;;;;5000157;28;20046;-72
2022/03/19 11:06:45;;;;;;;0.50;0.50;;;13.80;1.00;;;;;;5006970;28;20049;-73
2022/03/19 11:09:13;;;;;;;1.80;0.50;;;13.40;1.00;;;;;;5007590;28;20035;-73
2022/03/19 11:11:55;;;;;;;7.85;2.22;;;13.70;1.00;;;;;;5004510;28;20046;-73
2022/03/19 11:14:23;;;;;;;1.80;1.02;;;13.50;1.00;;;;;;5010470;28;20046;-71
2022/03/19 11:19:48;;;;;;;0.90;0.85;;;13.70;1.00;;;;;;5011419;28;20033;-73
2022/03/19 11:22:14;;;;;;;0.60;0.60;;;13.80;1.00;;;;;;5010679;28;20554;-73
2022/03/19 11:25:00;;;;;;;0.95;0.60;;;13.50;1.00;;;;;;5013312;28;20042;-73
2022/03/19 11:27:31;;;;;;;0.63;0.63;;;13.80;1.00;;;;;;5009737;28;20129;-73
2022/03/19 11:29:59;;;;;;;0.60;0.60;;;13.80;1.00;;;;;;5004707;28;20064;-73
2022/03/19 11:32:26;;;;;;;0.77;0.77;;;13.80;1.00;;;;;;5001273;28;20053;-72
2022/03/19 11:34:59;;;;;;;0.90;0.90;;;13.80;1.00;;;;;;5006503;28;20135;-73
2022/03/19 11:37:45;;;;;;;1.45;0.77;;;13.70;1.00;;;;;;5011353;28;20050;-73
2022/03/19 11:40:11;;;;;;;1.45;1.35;;;13.70;1.00;;;;;;5004818;28;20072;-74
2022/03/19 11:42:53;;;;;;;4.82;1.75;;;13.70;1.00;;;;;;5012057;28;20073;-74
2022/03/19 11:45:19;;;;;;;0.82;0.82;;;13.60;1.00;;;;;;5009526;28;20046;-73
2022/03/19 11:47:45;;;;;;;1.13;0.50;;;13.40;1.00;;;;;;5013556;28;20167;-73
2022/03/19 11:50:23;;;;;;;0.77;0.77;;;13.50;1.00;;;;;;5012797;28;20521;-73
2022/03/19 11:52:49;;;;;;;0.60;0.60;;;13.70;1.00;;;;;;5005814;28;20038;-73
2022/03/19 11:55:19;;;;;;;0.75;0.75;;;13.80;1.00;;;;;;5008161;28;20041;-73
2022/03/19 11:58:00;;;;;;;0.47;0.47;;;13.70;1.00;;;;;;5012698;28;20049;-73
2022/03/19 12:00:28;;;;;;;1.17;0.77;;;13.70;99.90;;;;;;5005780;28;20146;-73
2022/03/19 12:03:12;;;;;;;1.05;1.02;;;14.30;99.90;;;;;;5002965;28;20117;-74
2022/03/19 12:05:46;;;;;;;0.85;0.63;;;14.20;99.90;;;;;;5010093;28;20042;-74
2022/03/19 12:08:18;;;;;;;0.55;0.55;;;14.30;99.90;;;;;;5007569;28;20050;-74
2022/03/19 12:10:54;;;;;;;0.60;0.60;;;14.40;99.90;;;;;;5002412;28;20034;-73
2022/03/19 12:13:26;;;;;;;0.75;0.75;;;14.60;99.90;;;;;;5005416;28;20034;-73
2022/03/19 12:15:53;;;;;;;2.05;1.42;;;14.70;99.90;;;;;;5004454;28;20045;-74
2022/03/19 12:18:42;;;;;;;1.02;0.85;;;14.60;99.90;;;;;;5008559;28;20401;-73
2022/03/19 12:21:21;;;;;;;0.88;0.88;;;14.40;99.90;;;;;;5006857;28;20042;-73
2022/03/19 12:23:59;;;;;;;1.38;1.02;;;14.40;99.90;;;;;;5001840;28;20042;-72
2022/03/19 12:26:35;;;;;;;0.73;0.73;;;14.40;99.90;;;;;;5006814;28;20045;-73
2022/03/19 12:29:04;;;;;;;1.25;1.13;;;14.40;1.00;;;;;;5002817;28;20580;-72
2022/03/19 12:31:38;;;;;;;0.73;0.70;;;14.40;99.90;;;;;;5009377;28;20497;-73
2022/03/19 12:34:05;;;;;;;0.65;0.65;;;14.10;99.90;;;;;;5010130;28;20068;-74
2022/03/19 12:36:31;;;;;;;1.65;0.85;;;14.30;99.90;;;;;;5005818;28;20409;-74
2022/03/19 12:39:03;;;;;;;0.50;0.50;;;14.40;99.90;;;;;;5009671;28;20072;-73
2022/03/19 12:41:33;;;;;;;0.90;0.90;;;14.30;99.90;;;;;;5009917;28;20038;-73
2022/03/19 12:44:05;;;;;;;1.00;1.00;;;14.40;99.90;;;;;;5006513;28;20038;-73
2022/03/19 12:46:33;;;;;;;0.45;0.45;;;14.30;99.90;;;;;;5009793;28;20048;-73
2022/03/19 12:49:17;;;;;;;0.93;0.93;;;14.10;99.90;;;;;;5005348;28;20045;-73
2022/03/19 12:51:49;;;;;;;1.42;0.52;;;14.00;99.90;;;;;;5007130;28;20046;-73
2022/03/19 12:54:31;;;;;;;2.90;0.75;;;14.10;99.90;;;;;;5008320;28;20092;-73
2022/03/19 12:57:14;;;;;;;2.28;0.70;;;13.90;99.90;;;;;;5002227;28;20050;-73
2022/03/19 12:59:51;;;;;;;4.75;1.20;;;13.80;99.90;;;;;;5005607;28;20087;-73
2022/03/19 13:02:17;;;;;;;0.75;0.75;;;13.90;99.90;;;;;;5009306;28;20053;-73
2022/03/19 13:04:44;;;;;;;0.77;0.77;;;14.00;99.90;;;;;;5006864;28;20497;-73
2022/03/19 13:07:14;;;;;;;1.27;0.63;;;14.00;99.90;;;;;;5006539;28;20046;-74
2022/03/19 13:09:41;;;;;;;1.30;1.13;;;14.30;99.90;;;;;;5006701;28;20433;-73
2022/03/19 13:12:11;;;;;;;1.33;0.98;;;14.10;99.90;;;;;;5004473;28;20120;-74
2022/03/19 13:14:37;;;;;;;0.28;0.28;;;14.50;99.90;;;;;;5005141;28;20517;-74